Time;durP1;ratioP1;P1;durP2;ratioP2;P2;SDS_P1;SDS_P2;PMS_P1;PMS_P2;Temp;Humidity;BMP_temperature;BMP_pressure;BME280_temperature;BME280_humidity;BME280_pressure;Samples;Min_cycle;Max_cycle;Signal;HPM_P1;HPM_P2
2022/08/10 00:01:16;;;;;;;;;;;;;;;;;;6218026;22;19915;-80
2022/08/10 00:03:42;;;;;;;;;;;;;;;;;;6217146;22;19926;-80
2022/08/10 00:06:07;;;;;;;;;;;;;;;;;;6243166;22;20345;-80
2022/08/10 00:08:33;;;;;;;;;;;;;;;;;;6218470;22;19973;-80
2022/08/10 00:10:58;;;;;;;;;;;;;;;;;;6217821;22;19991;-80
2022/08/10 00:13:25;;;;;;;;;;;;;;;;;;6242973;22;19923;-80
2022/08/10 00:15:51;;;;;;;;;;;;;;;;;;6217339;22;20249;-80
2022/08/10 00:18:17;;;;;;;;;;;;;;;;;;6243133;22;19991;-81
2022/08/10 00:20:43;;;;;;;;;;;;;;;;;;6217848;22;19920;-80
2022/08/10 00:23:08;;;;;;;;;;;;;;;;;;6243412;22;20105;-80
2022/08/10 00:25:34;;;;;;;;;;;;;;;;;;6244499;22;19942;-80
2022/08/10 00:27:59;;;;;;;;;;;;;;;;;;6242795;22;19915;-80
2022/08/10 00:30:25;;;;;;;;;;;;;;;;;;6217768;22;19927;-80
2022/08/10 00:32:51;;;;;;;;;;;;;;;;;;6218405;22;20171;-81
2022/08/10 00:35:16;;;;;;;;;;;;;;;;;;6243792;22;19935;-80
2022/08/10 00:37:42;;;;;;;;;;;;;;;;;;6217130;22;20352;-80
2022/08/10 00:40:08;;;;;;;;;;;;;;;;;;6243137;22;19943;-81
2022/08/10 00:42:33;;;;;;;;;;;;;;;;;;6217675;22;19922;-80
2022/08/10 00:44:59;;;;;;;;;;;;;;;;;;6218180;22;19946;-81
2022/08/10 00:47:25;;;;;;;;;;;;;;;;;;6243269;22;19919;-80
2022/08/10 00:49:50;;;;;;;;;;;;;;;;;;6218095;22;20010;-80
2022/08/10 00:52:18;;;;;;;;;;;;;;;;;;6217936;22;19915;-80
2022/08/10 00:54:44;;;;;;;;;;;;;;;;;;6218252;22;19922;-80
2022/08/10 00:57:10;;;;;;;;;;;;;;;;;;6218492;22;20313;-81
2022/08/10 00:59:35;;;;;;;;;;;;;;;;;;6244016;22;20291;-80
2022/08/10 01:02:01;;;;;;;;;;;;;;;;;;6218323;22;19939;-81
2022/08/10 01:04:27;;;;;;;;;;;;;;;;;;6218426;22;20257;-80
2022/08/10 01:06:59;;;;;;;;;;;;;;;;;;6243582;22;20230;-81
2022/08/10 01:09:31;;;;;;;;;;;;;;;;;;6243578;22;19937;-80
2022/08/10 01:11:57;;;;;;;;;;;;;;;;;;6242822;22;20380;-81
2022/08/10 01:14:28;;;;;;;;;;;;;;;;;;6243613;22;19919;-81
2022/08/10 01:16:59;;;;;;;;;;;;;;;;;;6216597;22;20347;-80
2022/08/10 01:19:43;;;;;;;;;;;;;;;;;;6217643;22;20367;-81
2022/08/10 01:22:09;;;;;;;;;;;;;;;;;;6243241;22;19998;-81
2022/08/10 01:24:34;;;;;;;;;;;;;;;;;;6243981;22;20171;-79
2022/08/10 01:27:05;;;;;;;;;;;;;;;;;;6270626;22;19946;-80
2022/08/10 01:29:46;;;;;;;;;;;;;;;;;;6217213;22;19916;-80
2022/08/10 01:32:12;;;;;;;;;;;;;;;;;;6243087;22;19934;-80
2022/08/10 01:34:44;;;;;;;;;;;;;;;;;;6242451;22;19982;-81
2022/08/10 01:37:11;;;;;;;;;;;;;;;;;;6242302;22;19986;-81
2022/08/10 01:39:38;;;;;;;;;;;;;;;;;;6242412;22;19994;-80
2022/08/10 01:42:04;;;;;;;;;;;;;;;;;;6217377;22;19990;-81
2022/08/10 01:44:31;;;;;;;;;;;;;;;;;;6242729;22;19945;-80
2022/08/10 01:48:27;;;;;;;;;;;;;;;;;;6241637;22;19915;-80
2022/08/10 01:49:45;;;;;;;;;;;;;;;;;;6247565;22;19935;-80
2022/08/10 01:52:11;;;;;;;;;;;;;;;;;;6217843;22;20252;-80
2022/08/10 01:54:37;;;;;;;;;;;;;;;;;;6217905;22;19936;-80
2022/08/10 01:57:02;;;;;;;;;;;;;;;;;;6218197;22;20468;-80
2022/08/10 01:59:34;;;;;;;;;;;;;;;;;;6217108;22;19946;-80
2022/08/10 02:02:03;;;;;;;;;;;;;;;;;;6241864;22;20286;-80
2022/08/10 02:04:30;;;;;;;;;;;;;;;;;;6216935;22;20166;-80
2022/08/10 02:06:55;;;;;;;;;;;;;;;;;;6216760;22;19919;-80
2022/08/10 02:09:23;;;;;;;;;;;;;;;;;;6217255;22;19997;-80
2022/08/10 02:11:50;;;;;;;;;;;;;;;;;;6217787;22;19932;-80
2022/08/10 02:14:15;;;;;;;;;;;;;;;;;;6218051;22;19973;-80
2022/08/10 02:16:41;;;;;;;;;;;;;;;;;;6242015;22;19919;-80
2022/08/10 02:19:07;;;;;;;;;;;;;;;;;;6241065;22;19919;-80
2022/08/10 02:21:33;;;;;;;;;;;;;;;;;;6242410;22;20230;-80
2022/08/10 02:23:58;;;;;;;;;;;;;;;;;;6216772;22;19922;-80
2022/08/10 02:26:25;;;;;;;;;;;;;;;;;;6217038;22;19966;-80
2022/08/10 02:28:50;;;;;;;;;;;;;;;;;;6242810;22;19950;-80
2022/08/10 02:31:16;;;;;;;;;;;;;;;;;;6203037;22;20278;-80
2022/08/10 02:33:43;;;;;;;;;;;;;;;;;;6198636;22;19930;-80
2022/08/10 02:36:09;;;;;;;;;;;;;;;;;;6231394;22;19919;-80
2022/08/10 02:38:40;;;;;;;;;;;;;;;;;;6218549;22;20001;-80
2022/08/10 02:41:09;;;;;;;;;;;;;;;;;;6217161;22;20338;-80
2022/08/10 02:43:35;;;;;;;;;;;;;;;;;;6214566;22;19923;-80
2022/08/10 02:46:03;;;;;;;;;;;;;;;;;;6216426;22;19926;-80
2022/08/10 02:48:33;;;;;;;;;;;;;;;;;;6217531;22;19974;-79
2022/08/10 02:51:01;;;;;;;;;;;;;;;;;;6216643;22;19915;-79
2022/08/10 02:53:34;;;;;;;;;;;;;;;;;;6215549;22;20353;-79
2022/08/10 02:56:01;;;;;;;;;;;;;;;;;;6241033;22;20115;-79
2022/08/10 02:58:28;;;;;;;;;;;;;;;;;;6241259;22;20023;-79
2022/08/10 03:00:54;;;;;;;;;;;;;;;;;;6216428;22;19920;-80
2022/08/10 03:03:21;;;;;;;;;;;;;;;;;;6215997;22;20360;-80
2022/08/10 03:05:48;;;;;;;;;;;;;;;;;;6241655;22;20094;-79
2022/08/10 03:08:14;;;;;;;;;;;;;;;;;;6216796;22;19915;-80
2022/08/10 03:10:40;;;;;;;;;;;;;;;;;;6216522;22;19922;-80
2022/08/10 03:13:06;;;;;;;;;;;;;;;;;;6242025;22;20220;-80
2022/08/10 03:15:32;;;;;;;;;;;;;;;;;;6242705;22;19915;-79
2022/08/10 03:17:58;;;;;;;;;;;;;;;;;;6215837;22;19923;-80
2022/08/10 03:20:24;;;;;;;;;;;;;;;;;;6242139;22;19987;-80
2022/08/10 03:22:50;;;;;;;;;;;;;;;;;;6216350;22;19982;-80
2022/08/10 03:25:15;;;;;;;;;;;;;;;;;;6217063;22;20356;-80
2022/08/10 03:27:41;;;;;;;;;;;;;;;;;;6214506;22;19963;-80
2022/08/10 03:30:08;;;;;;;;;;;;;;;;;;6217271;22;19943;-80
2022/08/10 03:32:33;;;;;;;;;;;;;;;;;;6216573;22;19985;-80
2022/08/10 03:34:59;;;;;;;;;;;;;;;;;;6216978;22;19916;-80
2022/08/10 03:37:36;;;;;;;;;;;;;;;;;;6204280;22;20230;-80
2022/08/10 03:40:01;;;;;;;;;;;;;;;;;;6220009;22;19972;-80
2022/08/10 03:42:27;;;;;;;;;;;;;;;;;;6219529;22;19923;-81
2022/08/10 03:44:53;;;;;;;;;;;;;;;;;;6218822;22;19934;-80
2022/08/10 03:47:22;;;;;;;;;;;;;;;;;;6242563;22;19919;-81
2022/08/10 03:49:48;;;;;;;;;;;;;;;;;;6215876;22;19915;-80
2022/08/10 03:52:17;;;;;;;;;;;;;;;;;;6217758;22;19946;-80
2022/08/10 03:54:43;;;;;;;;;;;;;;;;;;6217772;22;19927;-79
2022/08/10 03:57:08;;;;;;;;;;;;;;;;;;6197073;23;19983;-79
2022/08/10 03:59:35;;;;;;;;;;;;;;;;;;6212171;22;19919;-80
2022/08/10 04:02:01;;;;;;;;;;;;;;;;;;6216005;22;19919;-80
2022/08/10 04:04:26;;;;;;;;;;;;;;;;;;6215828;22;19919;-80
2022/08/10 04:06:53;;;;;;;;;;;;;;;;;;6216714;22;19945;-80
2022/08/10 04:09:19;;;;;;;;;;;;;;;;;;6216189;22;19935;-79
2022/08/10 04:11:45;;;;;;;;;;;;;;;;;;6216594;22;19946;-80
2022/08/10 04:14:10;;;;;;;;;;;;;;;;;;6217817;22;20004;-79
2022/08/10 04:16:39;;;;;;;;;;;;;;;;;;6217813;22;20265;-80
2022/08/10 04:19:05;;;;;;;;;;;;;;;;;;6241096;22;19954;-80
2022/08/10 04:21:37;;;;;;;;;;;;;;;;;;6188811;22;20002;-80
2022/08/10 04:24:15;;;;;;;;;;;;;;;;;;6214866;22;19919;-80
2022/08/10 04:26:47;;;;;;;;;;;;;;;;;;6228041;22;19916;-81
2022/08/10 04:29:16;;;;;;;;;;;;;;;;;;6218036;22;20312;-79
2022/08/10 04:31:49;;;;;;;;;;;;;;;;;;6199572;22;19939;-77
2022/08/10 04:47:15;;;;;;;;;;;;;;;;;;5991521;23;20389;-81
2022/08/10 04:50:04;;;;;;;;;;;;;;;;;;5971538;23;19917;-81
2022/08/10 05:05:25;;;;;;;;;;;;;;;;;;;;;
2022/08/10 06:01:26;;;;;;;;;;;;;;;;;;5829414;24;19930;-80
2022/08/10 06:10:40;;;;;;;;;;;;;;;;;;5872977;24;19969;-80
2022/08/10 06:21:47;;;;;;;;;;;;;;;;;;6214309;22;19919;-87
2022/08/10 06:24:16;;;;;;;;;;;;;;;;;;6152992;23;19966;-85
2022/08/10 06:26:42;;;;;;;;;;;;;;;;;;6151658;23;19989;-86
2022/08/10 06:29:09;;;;;;;;;;;;;;;;;;6161523;23;19978;-87
2022/08/10 06:31:39;;;;;;;;;;;;;;;;;;6159917;23;19951;-86
2022/08/10 06:34:09;;;;;;;;;;;;;;;;;;6149940;23;20331;-86
2022/08/10 06:36:34;;;;;;;;;;;;;;;;;;6159571;23;19995;-86
2022/08/10 06:39:00;;;;;;;;;;;;;;;;;;6159497;23;19952;-86
2022/08/10 06:41:27;;;;;;;;;;;;;;;;;;6159798;23;19951;-86
2022/08/10 06:43:56;;;;;;;;;;;;;;;;;;6159625;23;19916;-86
2022/08/10 06:46:22;;;;;;;;;;;;;;;;;;6158197;23;19978;-87
2022/08/10 06:48:52;;;;;;;;;;;;;;;;;;6153733;23;19920;-86
2022/08/10 06:51:22;;;;;;;;;;;;;;;;;;6157836;23;20338;-86
2022/08/10 06:53:49;;;;;;;;;;;;;;;;;;6158582;23;19916;-86
2022/08/10 06:56:15;;;;;;;;;;;;;;;;;;6169746;23;19932;-86
2022/08/10 06:58:45;;;;;;;;;;;;;;;;;;6155870;23;19924;-86
2022/08/10 07:01:13;;;;;;;;;;;;;;;;;;6140635;23;19990;-85
2022/08/10 07:03:43;;;;;;;;;;;;;;;;;;6162245;23;19970;-87
2022/08/10 07:06:13;;;;;;;;;;;;;;;;;;6160162;23;19916;-87
2022/08/10 07:08:40;;;;;;;;;;;;;;;;;;6160801;23;19975;-86
2022/08/10 07:11:07;;;;;;;;;;;;;;;;;;6186795;23;19927;-86
2022/08/10 07:13:33;;;;;;;;;;;;;;;;;;6161712;23;19926;-86
2022/08/10 07:15:59;;;;;;;;;;;;;;;;;;6161619;23;19944;-86
2022/08/10 07:18:25;;;;;;;;;;;;;;;;;;6155917;23;19926;-87
2022/08/10 07:20:54;;;;;;;;;;;;;;;;;;6183642;23;20334;-87
2022/08/10 07:23:21;;;;;;;;;;;;;;;;;;6161363;23;20274;-86
2022/08/10 07:25:47;;;;;;;;;;;;;;;;;;6162003;23;19956;-86
2022/08/10 07:28:13;;;;;;;;;;;;;;;;;;6154184;23;19916;-86
2022/08/10 07:30:39;;;;;;;;;;;;;;;;;;6158213;23;19978;-87
2022/08/10 07:33:06;;;;;;;;;;;;;;;;;;6150537;23;19916;-87
2022/08/10 07:35:32;;;;;;;;;;;;;;;;;;6161069;23;20006;-86
2022/08/10 07:37:58;;;;;;;;;;;;;;;;;;6156458;23;19992;-86
2022/08/10 07:40:24;;;;;;;;;;;;;;;;;;6157511;23;19919;-86
2022/08/10 07:42:51;;;;;;;;;;;;;;;;;;6181667;23;20256;-86
2022/08/10 07:45:17;;;;;;;;;;;;;;;;;;6184480;23;20163;-86
2022/08/10 07:47:48;;;;;;;;;;;;;;;;;;6155849;23;20346;-85
2022/08/10 07:50:15;;;;;;;;;;;;;;;;;;6152199;23;19951;-85
2022/08/10 07:52:41;;;;;;;;;;;;;;;;;;6158271;23;19952;-81
2022/08/10 07:55:13;;;;;;;;;;;;;;;;;;6161958;23;19943;-86
2022/08/10 07:57:39;;;;;;;;;;;;;;;;;;6162947;23;20266;-87
2022/08/10 08:00:07;;;;;;;;;;;;;;;;;;6161630;23;19920;-86
2022/08/10 08:02:38;;;;;;;;;;;;;;;;;;6162553;23;19915;-86
2022/08/10 08:05:08;;;;;;;;;;;;;;;;;;6162260;23;19981;-86
2022/08/10 08:07:34;;;;;;;;;;;;;;;;;;6162543;23;19919;-87
2022/08/10 08:10:00;;;;;;;;;;;;;;;;;;6161111;23;19922;-87
2022/08/10 08:12:26;;;;;;;;;;;;;;;;;;6162239;23;19944;-87
2022/08/10 08:14:52;;;;;;;;;;;;;;;;;;6161933;23;20250;-87
2022/08/10 08:17:17;;;;;;;;;;;;;;;;;;6151638;23;19922;-86
2022/08/10 08:19:44;;;;;;;;;;;;;;;;;;6150269;22;19916;-86
2022/08/10 08:22:09;;;;;;;;;;;;;;;;;;6159660;23;19943;-87
2022/08/10 08:24:36;;;;;;;;;;;;;;;;;;6161320;23;19936;-87
2022/08/10 08:27:04;;;;;;;;;;;;;;;;;;6161018;23;19995;-86
2022/08/10 08:29:33;;;;;;;;;;;;;;;;;;6158865;23;19923;-87
2022/08/10 08:31:59;;;;;;;;;;;;;;;;;;6162166;23;19943;-87
2022/08/10 08:34:25;;;;;;;;;;;;;;;;;;6156890;23;19920;-87
2022/08/10 08:36:50;;;;;;;;;;;;;;;;;;6158296;23;19926;-86
2022/08/10 08:39:16;;;;;;;;;;;;;;;;;;6161233;23;19939;-84
2022/08/10 08:41:53;;;;;;;;;;;;;;;;;;6143498;23;19959;-84
2022/08/10 08:44:18;;;;;;;;;;;;;;;;;;6160845;23;19983;-84
2022/08/10 08:47:06;;;;;;;;;;;;;;;;;;6185264;23;19916;-84
2022/08/10 08:49:44;;;;;;;;;;;;;;;;;;6159236;23;19930;-85
2022/08/10 08:52:13;;;;;;;;;;;;;;;;;;6160986;23;19916;-87
2022/08/10 08:54:50;;;;;;;;;;;;;;;;;;6213084;23;19936;-87
2022/08/10 08:57:26;;;;;;;;;;;;;;;;;;6179694;23;19951;-85
2022/08/10 09:00:12;;;;;;;;;;;;;;;;;;6161891;23;20381;-85
2022/08/10 09:02:57;;;;;;;;;;;;;;;;;;6155296;23;20427;-85
2022/08/10 09:05:42;;;;;;;;;;;;;;;;;;6177805;23;19924;-85
2022/08/10 09:08:24;;;;;;;;;;;;;;;;;;6186100;23;19923;-85
2022/08/10 09:11:09;;;;;;;;;;;;;;;;;;6176056;23;19939;-85
2022/08/10 09:13:37;;;;;;;;;;;;;;;;;;6181347;23;19923;-86
2022/08/10 09:16:23;;;;;;;;;;;;;;;;;;6141683;23;19926;-85
2022/08/10 09:19:00;;;;;;;;;;;;;;;;;;6212245;23;20269;-86
2022/08/10 09:21:32;;;;;;;;;;;;;;;;;;6156194;23;20358;-86
2022/08/10 09:24:06;;;;;;;;;;;;;;;;;;6183650;23;19919;-87
2022/08/10 09:26:40;;;;;;;;;;;;;;;;;;6183149;23;19995;-87
2022/08/10 09:29:07;;;;;;;;;;;;;;;;;;6178279;23;19966;-87
2022/08/10 09:31:40;;;;;;;;;;;;;;;;;;6158943;23;20370;-87
2022/08/10 09:34:07;;;;;;;;;;;;;;;;;;6153630;23;19938;-86
2022/08/10 09:36:50;;;;;;;;;;;;;;;;;;6156210;23;19931;-87
2022/08/10 09:39:22;;;;;;;;;;;;;;;;;;6158933;23;19920;-87
2022/08/10 09:41:51;;;;;;;;;;;;;;;;;;6159734;23;19983;-87
2022/08/10 09:44:20;;;;;;;;;;;;;;;;;;6161839;23;19915;-87
2022/08/10 09:46:50;;;;;;;;;;;;;;;;;;6181964;23;19916;-87
2022/08/10 09:49:21;;;;;;;;;;;;;;;;;;6156399;23;19916;-85
2022/08/10 09:51:54;;;;;;;;;;;;;;;;;;6153794;23;20311;-85
2022/08/10 09:54:21;;;;;;;;;;;;;;;;;;6154317;23;20123;-85
2022/08/10 09:56:47;;;;;;;;;;;;;;;;;;6179153;23;20297;-86
2022/08/10 09:59:15;;;;;;;;;;;;;;;;;;6156133;23;19994;-85
2022/08/10 10:01:43;;;;;;;;;;;;;;;;;;6183081;23;19943;-86
2022/08/10 10:04:08;;;;;;;;;;;;;;;;;;6157459;23;20369;-85
2022/08/10 10:06:36;;;;;;;;;;;;;;;;;;6182603;23;20168;-86
2022/08/10 10:09:20;;;;;;;;;;;;;;;;;;6157526;23;20313;-86
2022/08/10 10:12:05;;;;;;;;;;;;;;;;;;6178947;23;19924;-87
2022/08/10 10:17:48;;;;;;;;;;;;;;;;;;6212506;23;19950;-88
2022/08/10 10:20:22;;;;;;;;;;;;;;;;;;6186097;23;19978;-87
2022/08/10 10:23:23;;;;;;;;;;;;;;;;;;6158445;23;20258;-89
2022/08/10 10:26:03;;;;;;;;;;;;;;;;;;6036345;23;19917;-84
2022/08/10 10:28:29;;;;;;;;;;;;;;;;;;6141547;23;20014;-86
2022/08/10 10:31:03;;;;;;;;;;;;;;;;;;6184047;23;19920;-86
2022/08/10 10:33:49;;;;;;;;;;;;;;;;;;6184694;23;19916;-86
2022/08/10 10:36:15;;;;;;;;;;;;;;;;;;6181166;23;19990;-86
2022/08/10 10:38:41;;;;;;;;;;;;;;;;;;6159844;23;19987;-86
2022/08/10 10:41:06;;;;;;;;;;;;;;;;;;6155804;23;19924;-87
2022/08/10 10:43:52;;;;;;;;;;;;;;;;;;6168689;23;19916;-87
2022/08/10 10:46:18;;;;;;;;;;;;;;;;;;6183450;23;19931;-86
2022/08/10 10:48:55;;;;;;;;;;;;;;;;;;6183339;23;19986;-85
2022/08/10 10:51:26;;;;;;;;;;;;;;;;;;6212463;23;19975;-86
2022/08/10 10:54:01;;;;;;;;;;;;;;;;;;6160727;22;19954;-85
2022/08/10 10:56:33;;;;;;;;;;;;;;;;;;6161363;23;19916;-85
2022/08/10 10:59:18;;;;;;;;;;;;;;;;;;6162156;23;19938;-86
2022/08/10 11:01:45;;;;;;;;;;;;;;;;;;6186907;23;19941;-86
2022/08/10 11:04:23;;;;;;;;;;;;;;;;;;6178059;23;19942;-86
2022/08/10 11:06:52;;;;;;;;;;;;;;;;;;6159671;23;19962;-85
2022/08/10 11:09:22;;;;;;;;;;;;;;;;;;6185860;23;20010;-85
2022/08/10 11:11:48;;;;;;;;;;;;;;;;;;6160785;23;19954;-86
2022/08/10 11:14:19;;;;;;;;;;;;;;;;;;6182817;23;19916;-83
2022/08/10 11:16:51;;;;;;;;;;;;;;;;;;6187170;23;20354;-85
2022/08/10 11:19:35;;;;;;;;;;;;;;;;;;6161157;23;19942;-86
2022/08/10 11:22:20;;;;;;;;;;;;;;;;;;6184480;23;20358;-87
2022/08/10 11:24:50;;;;;;;;;;;;;;;;;;6184884;23;19916;-86
2022/08/10 11:27:18;;;;;;;;;;;;;;;;;;6157734;23;19916;-86
2022/08/10 11:30:03;;;;;;;;;;;;;;;;;;6159712;23;19923;-84
2022/08/10 11:32:43;;;;;;;;;;;;;;;;;;6185169;23;19920;-87
2022/08/10 11:35:08;;;;;;;;;;;;;;;;;;6184320;23;20254;-86
2022/08/10 11:37:44;;;;;;;;;;;;;;;;;;6185006;23;19952;-87
2022/08/10 11:40:17;;;;;;;;;;;;;;;;;;6159903;23;19983;-86
2022/08/10 11:42:47;;;;;;;;;;;;;;;;;;6156108;23;19916;-86
2022/08/10 11:45:20;;;;;;;;;;;;;;;;;;6187000;23;19916;-87
2022/08/10 11:47:46;;;;;;;;;;;;;;;;;;6184144;23;19924;-86
2022/08/10 11:50:47;;;;;;;;;;;;;;;;;;6187913;23;19920;-86
2022/08/10 11:53:19;;;;;;;;;;;;;;;;;;6067720;23;19922;-86
2022/08/10 11:55:48;;;;;;;;;;;;;;;;;;6141639;23;19916;-84
2022/08/10 12:01:02;;;;;;;;;;;;;;;;;;6186523;23;19970;-87
2022/08/10 12:03:28;;;;;;;;;;;;;;;;;;6159627;23;19914;-87
2022/08/10 12:05:54;;;;;;;;;;;;;;;;;;6162946;23;19943;-87
2022/08/10 12:08:21;;;;;;;;;;;;;;;;;;6163487;23;19919;-87
2022/08/10 12:10:49;;;;;;;;;;;;;;;;;;6182739;23;19940;-86
2022/08/10 12:13:18;;;;;;;;;;;;;;;;;;6163027;23;19935;-86
2022/08/10 12:15:57;;;;;;;;;;;;;;;;;;6163776;23;19958;-87
2022/08/10 12:18:24;;;;;;;;;;;;;;;;;;6171605;23;19994;-85
2022/08/10 12:20:53;;;;;;;;;;;;;;;;;;6161173;23;19994;-86
2022/08/10 12:23:23;;;;;;;;;;;;;;;;;;6186779;23;20365;-86
2022/08/10 12:25:51;;;;;;;;;;;;;;;;;;6163798;23;20264;-86
2022/08/10 12:28:19;;;;;;;;;;;;;;;;;;6163442;23;19923;-86
2022/08/10 12:30:51;;;;;;;;;;;;;;;;;;6163637;23;19928;-85
2022/08/10 12:33:19;;;;;;;;;;;;;;;;;;6189472;23;19970;-85
2022/08/10 12:35:47;;;;;;;;;;;;;;;;;;6188218;23;19940;-87
2022/08/10 12:38:20;;;;;;;;;;;;;;;;;;6148316;23;19924;-87
2022/08/10 12:40:48;;;;;;;;;;;;;;;;;;6165815;23;19932;-85
2022/08/10 12:43:23;;;;;;;;;;;;;;;;;;6189765;23;20014;-85
2022/08/10 12:45:52;;;;;;;;;;;;;;;;;;6189835;23;19960;-85
2022/08/10 12:48:20;;;;;;;;;;;;;;;;;;6189272;23;19934;-86
2022/08/10 12:50:46;;;;;;;;;;;;;;;;;;6165359;23;19960;-87
2022/08/10 12:53:38;;;;;;;;;;;;;;;;;;6163144;23;19955;-87
2022/08/10 12:56:04;;;;;;;;;;;;;;;;;;6126705;23;19920;-89
2022/08/10 12:58:30;;;;;;;;;;;;;;;;;;6161109;23;20338;-87
2022/08/10 13:00:56;;;;;;;;;;;;;;;;;;6162397;23;19944;-87
2022/08/10 13:03:22;;;;;;;;;;;;;;;;;;6161236;23;19916;-88
2022/08/10 13:05:48;;;;;;;;;;;;;;;;;;6161882;23;20324;-88
2022/08/10 13:11:00;;;;;;;;;;;;;;;;;;6189232;23;19941;-88
2022/08/10 13:13:27;;;;;;;;;;;;;;;;;;6159627;23;20060;-85
2022/08/10 13:15:56;;;;;;;;;;;;;;;;;;6160287;23;19935;-87
2022/08/10 13:18:27;;;;;;;;;;;;;;;;;;6164331;23;19916;-88
2022/08/10 13:20:55;;;;;;;;;;;;;;;;;;6162199;23;19924;-85
2022/08/10 13:23:23;;;;;;;;;;;;;;;;;;6162046;23;19947;-87
2022/08/10 13:25:49;;;;;;;;;;;;;;;;;;6160480;23;19922;-87
2022/08/10 13:28:15;;;;;;;;;;;;;;;;;;6161626;23;19916;-87
2022/08/10 13:30:42;;;;;;;;;;;;;;;;;;6161454;23;19947;-88
2022/08/10 13:33:10;;;;;;;;;;;;;;;;;;6152955;23;19939;-87
2022/08/10 13:35:36;;;;;;;;;;;;;;;;;;6142090;23;19920;-86
2022/08/10 13:38:03;;;;;;;;;;;;;;;;;;6159737;23;19927;-87
2022/08/10 13:40:30;;;;;;;;;;;;;;;;;;6162240;23;19984;-87
2022/08/10 13:42:57;;;;;;;;;;;;;;;;;;6184621;23;19920;-87
2022/08/10 13:45:24;;;;;;;;;;;;;;;;;;6160413;23;19927;-87
2022/08/10 13:48:10;;;;;;;;;;;;;;;;;;6158859;23;19935;-86
2022/08/10 13:50:36;;;;;;;;;;;;;;;;;;6185544;23;19931;-87
2022/08/10 13:53:02;;;;;;;;;;;;;;;;;;6158122;23;19943;-88
2022/08/10 13:55:28;;;;;;;;;;;;;;;;;;6160866;23;19916;-88
2022/08/10 13:57:56;;;;;;;;;;;;;;;;;;6145479;23;19916;-87
2022/08/10 14:00:29;;;;;;;;;;;;;;;;;;6162020;23;19922;-86
2022/08/10 14:02:58;;;;;;;;;;;;;;;;;;6151619;23;19920;-88
2022/08/10 14:05:33;;;;;;;;;;;;;;;;;;6177977;22;19912;-87
2022/08/10 14:08:01;;;;;;;;;;;;;;;;;;6144706;23;19916;-88
2022/08/10 14:10:27;;;;;;;;;;;;;;;;;;6160301;23;19945;-87
2022/08/10 14:12:53;;;;;;;;;;;;;;;;;;6158535;23;19916;-88
2022/08/10 14:15:19;;;;;;;;;;;;;;;;;;6159454;23;19985;-87
2022/08/10 14:17:46;;;;;;;;;;;;;;;;;;6161092;23;19940;-88
2022/08/10 14:20:12;;;;;;;;;;;;;;;;;;6160265;23;19916;-87
2022/08/10 14:22:37;;;;;;;;;;;;;;;;;;6160017;23;19999;-88
2022/08/10 14:25:10;;;;;;;;;;;;;;;;;;6186677;23;19919;-87
2022/08/10 14:27:39;;;;;;;;;;;;;;;;;;6162062;23;19949;-87
2022/08/10 14:30:05;;;;;;;;;;;;;;;;;;6160180;23;19986;-88
2022/08/10 14:32:31;;;;;;;;;;;;;;;;;;6161464;23;19970;-88
2022/08/10 14:34:58;;;;;;;;;;;;;;;;;;6153179;23;20102;-88
2022/08/10 14:37:30;;;;;;;;;;;;;;;;;;6166062;23;20098;-88
2022/08/10 14:40:01;;;;;;;;;;;;;;;;;;6188686;23;19908;-87
2022/08/10 14:42:27;;;;;;;;;;;;;;;;;;6162739;23;19926;-88
2022/08/10 14:44:55;;;;;;;;;;;;;;;;;;6187060;23;19936;-87
2022/08/10 14:47:23;;;;;;;;;;;;;;;;;;6159634;23;20330;-88
2022/08/10 14:49:49;;;;;;;;;;;;;;;;;;6162201;23;19916;-87
2022/08/10 14:52:17;;;;;;;;;;;;;;;;;;6161833;23;19971;-88
2022/08/10 14:54:44;;;;;;;;;;;;;;;;;;6162458;23;19923;-88
2022/08/10 14:57:10;;;;;;;;;;;;;;;;;;6159590;23;20372;-87
2022/08/10 14:59:36;;;;;;;;;;;;;;;;;;6160543;23;19924;-88
2022/08/10 15:02:03;;;;;;;;;;;;;;;;;;6159906;23;19962;-87
2022/08/10 15:04:33;;;;;;;;;;;;;;;;;;6160088;23;19920;-87
2022/08/10 15:07:06;;;;;;;;;;;;;;;;;;6162239;23;19923;-87
2022/08/10 15:09:32;;;;;;;;;;;;;;;;;;6161204;23;19991;-89
2022/08/10 15:11:58;;;;;;;;;;;;;;;;;;6139120;23;19970;-86
2022/08/10 15:14:24;;;;;;;;;;;;;;;;;;6159996;23;19939;-86
2022/08/10 15:16:54;;;;;;;;;;;;;;;;;;6158077;23;19983;-86
2022/08/10 15:19:20;;;;;;;;;;;;;;;;;;6156545;23;19946;-86
2022/08/10 15:21:46;;;;;;;;;;;;;;;;;;6158965;23;19995;-86
2022/08/10 15:24:13;;;;;;;;;;;;;;;;;;6157765;23;19943;-87
2022/08/10 15:26:39;;;;;;;;;;;;;;;;;;6183066;23;19916;-87
2022/08/10 15:29:05;;;;;;;;;;;;;;;;;;6145003;23;19938;-86
2022/08/10 15:31:32;;;;;;;;;;;;;;;;;;6158841;23;19983;-87
2022/08/10 15:39:33;;;;;;;;;;;;;;;;;;6189312;23;19963;-86
2022/08/10 15:42:18;;;;;;;;;;;;;;;;;;6185794;23;20256;-86
2022/08/10 15:44:46;;;;;;;;;;;;;;;;;;6162041;23;19920;-87
2022/08/10 15:47:22;;;;;;;;;;;;;;;;;;6159956;23;19938;-86
2022/08/10 15:49:57;;;;;;;;;;;;;;;;;;6161114;23;19983;-85
2022/08/10 15:52:27;;;;;;;;;;;;;;;;;;6141285;23;20316;-87
2022/08/10 15:55:13;;;;;;;;;;;;;;;;;;6165014;23;19982;-85
2022/08/10 15:57:41;;;;;;;;;;;;;;;;;;6211978;23;19946;-86
2022/08/10 16:00:08;;;;;;;;;;;;;;;;;;6183723;23;20007;-86
2022/08/10 16:02:44;;;;;;;;;;;;;;;;;;6159915;23;19916;-86
2022/08/10 16:05:15;;;;;;;;;;;;;;;;;;6143381;23;19943;-87
2022/08/10 16:07:42;;;;;;;;;;;;;;;;;;6163675;23;20067;-86
2022/08/10 16:10:08;;;;;;;;;;;;;;;;;;6154538;23;19915;-86
2022/08/10 16:12:54;;;;;;;;;;;;;;;;;;6160671;23;19940;-86
2022/08/10 16:15:26;;;;;;;;;;;;;;;;;;6162475;23;20300;-84
2022/08/10 16:18:01;;;;;;;;;;;;;;;;;;6183954;23;19967;-86
2022/08/10 16:20:28;;;;;;;;;;;;;;;;;;6160417;23;19926;-85
2022/08/10 16:22:55;;;;;;;;;;;;;;;;;;6161677;23;19920;-87
2022/08/10 16:25:21;;;;;;;;;;;;;;;;;;6161729;23;19920;-86
2022/08/10 16:27:47;;;;;;;;;;;;;;;;;;6164899;23;19988;-86
2022/08/10 16:30:13;;;;;;;;;;;;;;;;;;6187633;23;19943;-86
2022/08/10 16:32:38;;;;;;;;;;;;;;;;;;6150453;23;19916;-86
2022/08/10 16:35:07;;;;;;;;;;;;;;;;;;6190459;23;19920;-88
2022/08/10 16:37:34;;;;;;;;;;;;;;;;;;6182563;23;19966;-86
2022/08/10 16:40:00;;;;;;;;;;;;;;;;;;6151165;23;19916;-86
2022/08/10 16:42:27;;;;;;;;;;;;;;;;;;6163352;23;19935;-86
2022/08/10 16:44:54;;;;;;;;;;;;;;;;;;6154234;23;19943;-86
2022/08/10 16:47:21;;;;;;;;;;;;;;;;;;6163069;23;19916;-85
2022/08/10 16:49:47;;;;;;;;;;;;;;;;;;6161605;23;20366;-86
2022/08/10 16:52:12;;;;;;;;;;;;;;;;;;6187831;23;19916;-86
2022/08/10 16:54:39;;;;;;;;;;;;;;;;;;6162838;23;19922;-86
2022/08/10 16:57:05;;;;;;;;;;;;;;;;;;6163401;23;20287;-86
2022/08/10 16:59:35;;;;;;;;;;;;;;;;;;6168355;23;19966;-86
2022/08/10 17:02:02;;;;;;;;;;;;;;;;;;6168528;23;19916;-86
2022/08/10 17:04:29;;;;;;;;;;;;;;;;;;6164697;23;19955;-86
2022/08/10 17:06:57;;;;;;;;;;;;;;;;;;6164211;23;19916;-85
2022/08/10 17:09:25;;;;;;;;;;;;;;;;;;6163292;23;19916;-86
2022/08/10 17:11:51;;;;;;;;;;;;;;;;;;6162601;23;19936;-85
2022/08/10 17:14:17;;;;;;;;;;;;;;;;;;6162579;23;20333;-86
2022/08/10 17:16:43;;;;;;;;;;;;;;;;;;6161689;23;19927;-88
2022/08/10 17:19:14;;;;;;;;;;;;;;;;;;6161424;23;19987;-87
2022/08/10 17:21:41;;;;;;;;;;;;;;;;;;6159104;23;19932;-87
2022/08/10 17:24:07;;;;;;;;;;;;;;;;;;6162714;23;19920;-87
2022/08/10 17:26:35;;;;;;;;;;;;;;;;;;6166331;23;19920;-86
2022/08/10 17:29:02;;;;;;;;;;;;;;;;;;6162763;23;20015;-87
2022/08/10 17:31:32;;;;;;;;;;;;;;;;;;6163242;23;20003;-87
2022/08/10 17:34:00;;;;;;;;;;;;;;;;;;6162718;23;19920;-87
2022/08/10 17:36:28;;;;;;;;;;;;;;;;;;6162161;23;19958;-86
2022/08/10 17:38:55;;;;;;;;;;;;;;;;;;6164121;23;20116;-86
2022/08/10 17:41:21;;;;;;;;;;;;;;;;;;6156696;23;19987;-84
2022/08/10 17:43:55;;;;;;;;;;;;;;;;;;6163664;23;19916;-86
2022/08/10 17:46:23;;;;;;;;;;;;;;;;;;6162038;23;19939;-86
2022/08/10 17:48:49;;;;;;;;;;;;;;;;;;6163414;23;19920;-86
2022/08/10 17:51:15;;;;;;;;;;;;;;;;;;6166750;23;19904;-87
2022/08/10 17:53:46;;;;;;;;;;;;;;;;;;6145951;23;19932;-89
2022/08/10 17:56:14;;;;;;;;;;;;;;;;;;6138442;23;20354;-87
2022/08/10 17:58:40;;;;;;;;;;;;;;;;;;6160881;23;19979;-87
2022/08/10 18:01:06;;;;;;;;;;;;;;;;;;6162454;23;19916;-86
2022/08/10 18:03:35;;;;;;;;;;;;;;;;;;6165092;23;20029;-86
2022/08/10 18:06:02;;;;;;;;;;;;;;;;;;6162824;23;19916;-86
2022/08/10 18:08:29;;;;;;;;;;;;;;;;;;6162894;23;19922;-86
2022/08/10 18:10:58;;;;;;;;;;;;;;;;;;6146924;23;19922;-87
2022/08/10 18:13:29;;;;;;;;;;;;;;;;;;6158579;23;20377;-87
2022/08/10 18:15:55;;;;;;;;;;;;;;;;;;6129362;23;19917;-88
2022/08/10 18:18:27;;;;;;;;;;;;;;;;;;6163373;23;20016;-85
2022/08/10 18:21:06;;;;;;;;;;;;;;;;;;6160047;23;20157;-86
2022/08/10 18:23:32;;;;;;;;;;;;;;;;;;6147416;23;19920;-86
2022/08/10 18:25:59;;;;;;;;;;;;;;;;;;6149595;23;19951;-87
2022/08/10 18:28:25;;;;;;;;;;;;;;;;;;6146462;23;19940;-85
2022/08/10 18:30:54;;;;;;;;;;;;;;;;;;6146505;23;19942;-88
2022/08/10 18:33:49;;;;;;;;;;;;;;;;;;6127927;23;20410;-86
2022/08/10 18:36:41;;;;;;;;;;;;;;;;;;6111186;23;24404;-88
2022/08/10 18:52:08;;;;;;;;;;;;;;;;;;6128579;23;20421;-88
2022/08/10 19:16:47;;;;;;;;;;;;;;;;;;5851036;24;19993;-89
2022/08/10 19:35:04;;;;;;;;;;;;;;;;;;6055626;23;19942;-86
2022/08/10 19:37:38;;;;;;;;;;;;;;;;;;6150362;23;20278;-86
2022/08/10 19:40:30;;;;;;;;;;;;;;;;;;6151360;23;19916;-86